sensor_id;sensor_type;location;lat;lon;timestamp;P1;durP1;ratioP1;P2;durP2;ratioP2
23718;SDS011;43322;52.230;5.702;2024-02-04T00:02:07;19.77;;;14.55;;
23718;SDS011;43322;52.230;5.702;2024-02-04T00:04:39;20.50;;;14.27;;
23718;SDS011;43322;52.230;5.702;2024-02-04T00:07:06;20.20;;;14.13;;
23718;SDS011;43322;52.230;5.702;2024-02-04T00:09:33;16.95;;;12.43;;
23718;SDS011;43322;52.230;5.702;2024-02-04T00:11:59;17.80;;;11.77;;
23718;SDS011;43322;52.230;5.702;2024-02-04T00:14:28;20.70;;;11.82;;
23718;SDS011;43322;52.230;5.702;2024-02-04T00:16:55;14.95;;;10.18;;
23718;SDS011;43322;52.230;5.702;2024-02-04T00:19:22;13.63;;;9.63;;
23718;SDS011;43322;52.230;5.702;2024-02-04T00:21:50;11.80;;;9.38;;
23718;SDS011;43322;52.230;5.702;2024-02-04T00:24:17;10.98;;;8.80;;
23718;SDS011;43322;52.230;5.702;2024-02-04T00:26:44;15.55;;;8.15;;
23718;SDS011;43322;52.230;5.702;2024-02-04T00:29:11;11.82;;;8.77;;
23718;SDS011;43322;52.230;5.702;2024-02-04T00:31:38;10.50;;;8.45;;
23718;SDS011;43322;52.230;5.702;2024-02-04T00:34:03;9.25;;;8.27;;
23718;SDS011;43322;52.230;5.702;2024-02-04T00:36:30;9.63;;;7.47;;
23718;SDS011;43322;52.230;5.702;2024-02-04T00:38:59;11.38;;;7.47;;
23718;SDS011;43322;52.230;5.702;2024-02-04T00:41:25;10.02;;;7.68;;
23718;SDS011;43322;52.230;5.702;2024-02-04T00:43:52;12.77;;;7.72;;
23718;SDS011;43322;52.230;5.702;2024-02-04T00:46:19;11.00;;;7.88;;
23718;SDS011;43322;52.230;5.702;2024-02-04T00:48:46;15.10;;;7.78;;
23718;SDS011;43322;52.230;5.702;2024-02-04T00:51:12;8.60;;;7.43;;
23718;SDS011;43322;52.230;5.702;2024-02-04T00:53:42;8.50;;;7.70;;
23718;SDS011;43322;52.230;5.702;2024-02-04T00:56:10;9.10;;;7.82;;
23718;SDS011;43322;52.230;5.702;2024-02-04T00:58:37;10.43;;;7.90;;
23718;SDS011;43322;52.230;5.702;2024-02-04T01:01:04;10.95;;;8.05;;
23718;SDS011;43322;52.230;5.702;2024-02-04T01:03:31;9.90;;;8.32;;
23718;SDS011;43322;52.230;5.702;2024-02-04T01:05:58;11.25;;;8.52;;
23718;SDS011;43322;52.230;5.702;2024-02-04T01:08:25;11.95;;;8.57;;
23718;SDS011;43322;52.230;5.702;2024-02-04T01:10:52;10.02;;;8.52;;
23718;SDS011;43322;52.230;5.702;2024-02-04T01:13:20;10.02;;;9.00;;
23718;SDS011;43322;52.230;5.702;2024-02-04T01:15:47;10.50;;;9.07;;
23718;SDS011;43322;52.230;5.702;2024-02-04T01:18:14;11.23;;;9.40;;
23718;SDS011;43322;52.230;5.702;2024-02-04T01:20:40;13.52;;;10.05;;
23718;SDS011;43322;52.230;5.702;2024-02-04T01:23:07;14.40;;;10.45;;
23718;SDS011;43322;52.230;5.702;2024-02-04T01:25:34;11.25;;;10.02;;
23718;SDS011;43322;52.230;5.702;2024-02-04T01:28:01;12.48;;;10.80;;
23718;SDS011;43322;52.230;5.702;2024-02-04T01:30:30;18.27;;;11.60;;
23718;SDS011;43322;52.230;5.702;2024-02-04T01:32:57;15.00;;;11.50;;
23718;SDS011;43322;52.230;5.702;2024-02-04T01:35:23;18.77;;;13.00;;
23718;SDS011;43322;52.230;5.702;2024-02-04T01:37:50;19.40;;;12.57;;
23718;SDS011;43322;52.230;5.702;2024-02-04T01:40:17;16.33;;;12.77;;
23718;SDS011;43322;52.230;5.702;2024-02-04T01:42:44;16.23;;;12.50;;
23718;SDS011;43322;52.230;5.702;2024-02-04T01:45:11;20.63;;;12.77;;
23718;SDS011;43322;52.230;5.702;2024-02-04T01:47:39;19.70;;;12.30;;
23718;SDS011;43322;52.230;5.702;2024-02-04T01:50:06;18.38;;;11.98;;
23718;SDS011;43322;52.230;5.702;2024-02-04T01:52:33;22.40;;;12.65;;
23718;SDS011;43322;52.230;5.702;2024-02-04T01:55:04;23.65;;;12.35;;
23718;SDS011;43322;52.230;5.702;2024-02-04T01:57:31;26.85;;;12.70;;
23718;SDS011;43322;52.230;5.702;2024-02-04T01:59:59;25.45;;;12.77;;
23718;SDS011;43322;52.230;5.702;2024-02-04T02:02:27;20.95;;;11.75;;
23718;SDS011;43322;52.230;5.702;2024-02-04T02:04:55;21.25;;;12.27;;
23718;SDS011;43322;52.230;5.702;2024-02-04T02:07:23;24.70;;;12.27;;
23718;SDS011;43322;52.230;5.702;2024-02-04T02:09:52;20.13;;;12.10;;
23718;SDS011;43322;52.230;5.702;2024-02-04T02:12:20;20.95;;;10.70;;
23718;SDS011;43322;52.230;5.702;2024-02-04T02:14:53;21.55;;;10.70;;
23718;SDS011;43322;52.230;5.702;2024-02-04T02:17:25;24.50;;;9.80;;
23718;SDS011;43322;52.230;5.702;2024-02-04T02:20:01;18.05;;;8.43;;
23718;SDS011;43322;52.230;5.702;2024-02-04T02:22:36;17.00;;;8.65;;
23718;SDS011;43322;52.230;5.702;2024-02-04T02:25:10;19.13;;;7.88;;
23718;SDS011;43322;52.230;5.702;2024-02-04T02:27:45;14.07;;;5.72;;
23718;SDS011;43322;52.230;5.702;2024-02-04T02:30:12;19.20;;;6.25;;
23718;SDS011;43322;52.230;5.702;2024-02-04T02:32:39;15.57;;;5.70;;
23718;SDS011;43322;52.230;5.702;2024-02-04T02:35:06;11.77;;;5.93;;
23718;SDS011;43322;52.230;5.702;2024-02-04T02:37:36;9.20;;;5.50;;
23718;SDS011;43322;52.230;5.702;2024-02-04T02:40:12;17.08;;;6.80;;
23718;SDS011;43322;52.230;5.702;2024-02-04T02:42:46;8.82;;;5.20;;
23718;SDS011;43322;52.230;5.702;2024-02-04T02:45:13;9.43;;;5.50;;
23718;SDS011;43322;52.230;5.702;2024-02-04T02:47:42;14.43;;;5.68;;
23718;SDS011;43322;52.230;5.702;2024-02-04T02:50:12;18.20;;;6.63;;
23718;SDS011;43322;52.230;5.702;2024-02-04T02:52:39;10.27;;;5.40;;
23718;SDS011;43322;52.230;5.702;2024-02-04T02:55:06;16.40;;;5.72;;
23718;SDS011;43322;52.230;5.702;2024-02-04T02:57:34;16.73;;;6.03;;
23718;SDS011;43322;52.230;5.702;2024-02-04T03:00:01;13.05;;;5.45;;
23718;SDS011;43322;52.230;5.702;2024-02-04T03:02:30;12.02;;;5.03;;
23718;SDS011;43322;52.230;5.702;2024-02-04T03:04:57;9.30;;;4.95;;
23718;SDS011;43322;52.230;5.702;2024-02-04T03:07:24;10.38;;;4.97;;
23718;SDS011;43322;52.230;5.702;2024-02-04T03:09:52;10.23;;;4.53;;
23718;SDS011;43322;52.230;5.702;2024-02-04T03:12:19;18.15;;;5.93;;
23718;SDS011;43322;52.230;5.702;2024-02-04T03:14:47;14.18;;;4.95;;
23718;SDS011;43322;52.230;5.702;2024-02-04T03:17:14;12.27;;;4.50;;
23718;SDS011;43322;52.230;5.702;2024-02-04T03:19:45;12.07;;;5.05;;
23718;SDS011;43322;52.230;5.702;2024-02-04T03:22:12;16.02;;;5.07;;
23718;SDS011;43322;52.230;5.702;2024-02-04T03:24:39;13.48;;;5.57;;
23718;SDS011;43322;52.230;5.702;2024-02-04T03:27:06;8.35;;;4.85;;
23718;SDS011;43322;52.230;5.702;2024-02-04T03:29:33;10.93;;;5.05;;
23718;SDS011;43322;52.230;5.702;2024-02-04T03:32:01;14.35;;;6.45;;
23718;SDS011;43322;52.230;5.702;2024-02-04T03:34:29;11.68;;;5.95;;
23718;SDS011;43322;52.230;5.702;2024-02-04T03:36:55;13.65;;;6.10;;
23718;SDS011;43322;52.230;5.702;2024-02-04T03:39:22;14.43;;;6.35;;
23718;SDS011;43322;52.230;5.702;2024-02-04T03:41:49;12.27;;;6.20;;
23718;SDS011;43322;52.230;5.702;2024-02-04T03:44:16;12.63;;;6.70;;
23718;SDS011;43322;52.230;5.702;2024-02-04T03:46:42;17.05;;;7.32;;
23718;SDS011;43322;52.230;5.702;2024-02-04T03:49:11;17.27;;;6.80;;
23718;SDS011;43322;52.230;5.702;2024-02-04T03:51:38;16.15;;;7.63;;
23718;SDS011;43322;52.230;5.702;2024-02-04T03:54:04;13.70;;;7.88;;
23718;SDS011;43322;52.230;5.702;2024-02-04T03:56:30;20.08;;;7.53;;
23718;SDS011;43322;52.230;5.702;2024-02-04T03:58:57;13.45;;;8.00;;
23718;SDS011;43322;52.230;5.702;2024-02-04T04:01:24;15.82;;;8.00;;
23718;SDS011;43322;52.230;5.702;2024-02-04T04:03:51;21.67;;;8.18;;
23718;SDS011;43322;52.230;5.702;2024-02-04T04:06:19;13.30;;;7.30;;
23718;SDS011;43322;52.230;5.702;2024-02-04T04:08:46;15.10;;;7.05;;
23718;SDS011;43322;52.230;5.702;2024-02-04T04:11:13;14.82;;;6.20;;
23718;SDS011;43322;52.230;5.702;2024-02-04T04:13:39;13.88;;;7.50;;
23718;SDS011;43322;52.230;5.702;2024-02-04T04:16:06;15.82;;;6.32;;
23718;SDS011;43322;52.230;5.702;2024-02-04T04:18:33;14.52;;;6.20;;
23718;SDS011;43322;52.230;5.702;2024-02-04T04:21:00;16.80;;;6.03;;
23718;SDS011;43322;52.230;5.702;2024-02-04T04:23:29;12.63;;;6.20;;
23718;SDS011;43322;52.230;5.702;2024-02-04T04:25:55;17.25;;;5.28;;
23718;SDS011;43322;52.230;5.702;2024-02-04T04:28:22;14.90;;;5.22;;
23718;SDS011;43322;52.230;5.702;2024-02-04T04:30:49;11.88;;;5.60;;
23718;SDS011;43322;52.230;5.702;2024-02-04T04:33:16;13.38;;;5.18;;
23718;SDS011;43322;52.230;5.702;2024-02-04T04:35:42;12.35;;;4.70;;
23718;SDS011;43322;52.230;5.702;2024-02-04T04:38:09;15.88;;;5.55;;
23718;SDS011;43322;52.230;5.702;2024-02-04T04:40:37;15.32;;;4.70;;
23718;SDS011;43322;52.230;5.702;2024-02-04T04:43:05;11.90;;;4.70;;
23718;SDS011;43322;52.230;5.702;2024-02-04T04:45:32;16.02;;;4.95;;
23718;SDS011;43322;52.230;5.702;2024-02-04T04:47:59;11.80;;;3.88;;
23718;SDS011;43322;52.230;5.702;2024-02-04T04:50:26;14.82;;;4.35;;
23718;SDS011;43322;52.230;5.702;2024-02-04T04:52:53;7.78;;;4.25;;
23718;SDS011;43322;52.230;5.702;2024-02-04T04:55:20;12.65;;;3.75;;
23718;SDS011;43322;52.230;5.702;2024-02-04T04:57:48;12.98;;;3.53;;
23718;SDS011;43322;52.230;5.702;2024-02-04T05:00:15;14.18;;;3.13;;
23718;SDS011;43322;52.230;5.702;2024-02-04T05:02:43;14.60;;;2.78;;
23718;SDS011;43322;52.230;5.702;2024-02-04T05:05:10;10.07;;;3.40;;
23718;SDS011;43322;52.230;5.702;2024-02-04T05:07:37;7.93;;;2.58;;
23718;SDS011;43322;52.230;5.702;2024-02-04T05:10:04;9.60;;;3.03;;
23718;SDS011;43322;52.230;5.702;2024-02-04T05:12:32;5.10;;;2.63;;
23718;SDS011;43322;52.230;5.702;2024-02-04T05:15:01;10.85;;;2.80;;
23718;SDS011;43322;52.230;5.702;2024-02-04T05:17:27;8.38;;;3.22;;
23718;SDS011;43322;52.230;5.702;2024-02-04T05:19:54;13.48;;;3.17;;
23718;SDS011;43322;52.230;5.702;2024-02-04T05:22:21;11.82;;;2.78;;
23718;SDS011;43322;52.230;5.702;2024-02-04T05:24:48;4.80;;;2.55;;
23718;SDS011;43322;52.230;5.702;2024-02-04T05:27:14;10.27;;;3.30;;
23718;SDS011;43322;52.230;5.702;2024-02-04T05:29:41;12.52;;;3.40;;
23718;SDS011;43322;52.230;5.702;2024-02-04T05:32:09;13.55;;;3.20;;
23718;SDS011;43322;52.230;5.702;2024-02-04T05:34:36;9.30;;;2.95;;
23718;SDS011;43322;52.230;5.702;2024-02-04T05:37:03;10.77;;;3.70;;
23718;SDS011;43322;52.230;5.702;2024-02-04T05:39:30;11.32;;;3.20;;
23718;SDS011;43322;52.230;5.702;2024-02-04T05:41:57;10.65;;;3.60;;
23718;SDS011;43322;52.230;5.702;2024-02-04T05:44:24;13.70;;;4.40;;
23718;SDS011;43322;52.230;5.702;2024-02-04T05:46:51;11.95;;;3.85;;
23718;SDS011;43322;52.230;5.702;2024-02-04T05:49:19;8.48;;;3.40;;
23718;SDS011;43322;52.230;5.702;2024-02-04T05:51:46;14.45;;;4.07;;
23718;SDS011;43322;52.230;5.702;2024-02-04T05:54:13;13.82;;;4.75;;
23718;SDS011;43322;52.230;5.702;2024-02-04T05:56:40;11.35;;;3.67;;
23718;SDS011;43322;52.230;5.702;2024-02-04T05:59:07;14.60;;;4.00;;
23718;SDS011;43322;52.230;5.702;2024-02-04T06:01:34;9.60;;;3.70;;
23718;SDS011;43322;52.230;5.702;2024-02-04T06:04:00;13.50;;;4.53;;
23718;SDS011;43322;52.230;5.702;2024-02-04T06:06:28;14.93;;;4.80;;
23718;SDS011;43322;52.230;5.702;2024-02-04T06:08:55;10.77;;;4.35;;
23718;SDS011;43322;52.230;5.702;2024-02-04T06:11:23;11.27;;;4.78;;
23718;SDS011;43322;52.230;5.702;2024-02-04T06:13:50;11.95;;;4.85;;
23718;SDS011;43322;52.230;5.702;2024-02-04T06:16:17;18.95;;;6.18;;
23718;SDS011;43322;52.230;5.702;2024-02-04T06:18:43;18.52;;;5.43;;
23718;SDS011;43322;52.230;5.702;2024-02-04T06:21:10;14.23;;;6.00;;
23718;SDS011;43322;52.230;5.702;2024-02-04T06:23:39;14.77;;;5.80;;
23718;SDS011;43322;52.230;5.702;2024-02-04T06:26:05;16.55;;;5.78;;
23718;SDS011;43322;52.230;5.702;2024-02-04T06:28:32;14.55;;;6.00;;
23718;SDS011;43322;52.230;5.702;2024-02-04T06:30:59;17.98;;;5.20;;
23718;SDS011;43322;52.230;5.702;2024-02-04T06:33:27;15.20;;;5.03;;
23718;SDS011;43322;52.230;5.702;2024-02-04T06:35:54;16.52;;;5.43;;
23718;SDS011;43322;52.230;5.702;2024-02-04T06:38:21;16.92;;;4.95;;
23718;SDS011;43322;52.230;5.702;2024-02-04T06:40:49;13.50;;;5.00;;
23718;SDS011;43322;52.230;5.702;2024-02-04T06:43:15;13.25;;;5.43;;
23718;SDS011;43322;52.230;5.702;2024-02-04T06:45:42;16.02;;;4.55;;
23718;SDS011;43322;52.230;5.702;2024-02-04T06:48:09;9.32;;;5.00;;
23718;SDS011;43322;52.230;5.702;2024-02-04T06:50:36;14.23;;;5.68;;
23718;SDS011;43322;52.230;5.702;2024-02-04T06:53:03;14.93;;;5.43;;
23718;SDS011;43322;52.230;5.702;2024-02-04T06:55:30;16.83;;;5.68;;
23718;SDS011;43322;52.230;5.702;2024-02-04T06:57:58;8.90;;;5.10;;
23718;SDS011;43322;52.230;5.702;2024-02-04T07:00:25;13.40;;;5.05;;
23718;SDS011;43322;52.230;5.702;2024-02-04T07:02:52;12.25;;;4.78;;
23718;SDS011;43322;52.230;5.702;2024-02-04T07:05:19;15.70;;;4.97;;
23718;SDS011;43322;52.230;5.702;2024-02-04T07:07:47;13.25;;;5.30;;
23718;SDS011;43322;52.230;5.702;2024-02-04T07:10:13;12.70;;;5.05;;
23718;SDS011;43322;52.230;5.702;2024-02-04T07:12:40;16.45;;;6.22;;
23718;SDS011;43322;52.230;5.702;2024-02-04T07:15:08;22.23;;;7.07;;
23718;SDS011;43322;52.230;5.702;2024-02-04T07:17:35;13.55;;;6.75;;
23718;SDS011;43322;52.230;5.702;2024-02-04T07:20:02;11.00;;;6.68;;
23718;SDS011;43322;52.230;5.702;2024-02-04T07:22:30;11.32;;;6.75;;
23718;SDS011;43322;52.230;5.702;2024-02-04T07:24:57;14.15;;;7.40;;
23718;SDS011;43322;52.230;5.702;2024-02-04T07:27:23;15.65;;;7.25;;
23718;SDS011;43322;52.230;5.702;2024-02-04T07:29:50;15.77;;;7.82;;
23718;SDS011;43322;52.230;5.702;2024-02-04T07:32:21;13.90;;;7.57;;
23718;SDS011;43322;52.230;5.702;2024-02-04T07:34:48;15.15;;;7.38;;
23718;SDS011;43322;52.230;5.702;2024-02-04T07:37:15;13.27;;;7.28;;
23718;SDS011;43322;52.230;5.702;2024-02-04T07:39:42;13.43;;;7.13;;
23718;SDS011;43322;52.230;5.702;2024-02-04T07:42:09;11.32;;;7.25;;
23718;SDS011;43322;52.230;5.702;2024-02-04T07:44:36;14.35;;;6.88;;
23718;SDS011;43322;52.230;5.702;2024-02-04T07:47:03;12.98;;;7.38;;
23718;SDS011;43322;52.230;5.702;2024-02-04T07:49:31;11.75;;;7.00;;
23718;SDS011;43322;52.230;5.702;2024-02-04T07:51:58;11.00;;;7.53;;
23718;SDS011;43322;52.230;5.702;2024-02-04T07:54:24;7.78;;;6.78;;
23718;SDS011;43322;52.230;5.702;2024-02-04T07:56:51;10.50;;;7.70;;
23718;SDS011;43322;52.230;5.702;2024-02-04T07:59:18;11.98;;;7.70;;
23718;SDS011;43322;52.230;5.702;2024-02-04T08:01:45;14.68;;;8.30;;
23718;SDS011;43322;52.230;5.702;2024-02-04T08:04:11;16.10;;;8.30;;
23718;SDS011;43322;52.230;5.702;2024-02-04T08:06:40;13.65;;;8.13;;
23718;SDS011;43322;52.230;5.702;2024-02-04T08:09:06;17.33;;;9.20;;
23718;SDS011;43322;52.230;5.702;2024-02-04T08:11:33;14.35;;;9.88;;
23718;SDS011;43322;52.230;5.702;2024-02-04T08:14:00;21.10;;;11.55;;
23718;SDS011;43322;52.230;5.702;2024-02-04T08:16:27;22.33;;;12.02;;
23718;SDS011;43322;52.230;5.702;2024-02-04T08:18:53;25.98;;;13.15;;
23718;SDS011;43322;52.230;5.702;2024-02-04T08:21:22;22.52;;;12.02;;
23718;SDS011;43322;52.230;5.702;2024-02-04T08:23:51;17.27;;;11.63;;
23718;SDS011;43322;52.230;5.702;2024-02-04T08:26:17;14.48;;;11.90;;
23718;SDS011;43322;52.230;5.702;2024-02-04T08:28:44;18.75;;;10.98;;
23718;SDS011;43322;52.230;5.702;2024-02-04T08:31:11;17.50;;;10.40;;
23718;SDS011;43322;52.230;5.702;2024-02-04T08:33:38;23.10;;;11.10;;
23718;SDS011;43322;52.230;5.702;2024-02-04T08:36:05;14.82;;;9.63;;
23718;SDS011;43322;52.230;5.702;2024-02-04T08:38:35;15.93;;;9.75;;
23718;SDS011;43322;52.230;5.702;2024-02-04T08:41:03;16.92;;;8.80;;
23718;SDS011;43322;52.230;5.702;2024-02-04T08:43:30;13.60;;;8.45;;
23718;SDS011;43322;52.230;5.702;2024-02-04T08:45:57;15.57;;;8.38;;
23718;SDS011;43322;52.230;5.702;2024-02-04T08:48:24;18.25;;;8.15;;
23718;SDS011;43322;52.230;5.702;2024-02-04T08:50:50;10.07;;;7.68;;
23718;SDS011;43322;52.230;5.702;2024-02-04T08:53:19;13.85;;;6.80;;
23718;SDS011;43322;52.230;5.702;2024-02-04T08:55:46;11.40;;;6.80;;
23718;SDS011;43322;52.230;5.702;2024-02-04T08:58:14;12.77;;;6.50;;
23718;SDS011;43322;52.230;5.702;2024-02-04T09:00:41;9.55;;;5.85;;
23718;SDS011;43322;52.230;5.702;2024-02-04T09:03:08;10.38;;;5.60;;
23718;SDS011;43322;52.230;5.702;2024-02-04T09:05:34;9.52;;;5.78;;
23718;SDS011;43322;52.230;5.702;2024-02-04T09:08:01;6.47;;;4.60;;
23718;SDS011;43322;52.230;5.702;2024-02-04T09:10:28;12.23;;;4.63;;
23718;SDS011;43322;52.230;5.702;2024-02-04T09:12:55;4.30;;;3.90;;
23718;SDS011;43322;52.230;5.702;2024-02-04T09:15:23;6.78;;;4.07;;
23718;SDS011;43322;52.230;5.702;2024-02-04T09:17:50;7.35;;;3.60;;
23718;SDS011;43322;52.230;5.702;2024-02-04T09:20:16;7.90;;;3.78;;
23718;SDS011;43322;52.230;5.702;2024-02-04T09:22:43;5.70;;;3.60;;
23718;SDS011;43322;52.230;5.702;2024-02-04T09:25:10;6.30;;;3.83;;
23718;SDS011;43322;52.230;5.702;2024-02-04T09:27:37;3.95;;;3.63;;
23718;SDS011;43322;52.230;5.702;2024-02-04T09:30:04;9.25;;;4.45;;
23718;SDS011;43322;52.230;5.702;2024-02-04T09:32:33;9.25;;;4.47;;
23718;SDS011;43322;52.230;5.702;2024-02-04T09:35:00;6.00;;;4.85;;
23718;SDS011;43322;52.230;5.702;2024-02-04T09:37:27;7.07;;;4.72;;
23718;SDS011;43322;52.230;5.702;2024-02-04T09:39:53;8.27;;;5.70;;
23718;SDS011;43322;52.230;5.702;2024-02-04T09:42:20;6.13;;;5.53;;
23718;SDS011;43322;52.230;5.702;2024-02-04T09:44:48;9.25;;;6.25;;
23718;SDS011;43322;52.230;5.702;2024-02-04T09:47:16;9.68;;;5.93;;
23718;SDS011;43322;52.230;5.702;2024-02-04T09:49:44;8.38;;;5.60;;
23718;SDS011;43322;52.230;5.702;2024-02-04T09:52:12;9.75;;;5.85;;
23718;SDS011;43322;52.230;5.702;2024-02-04T09:54:41;8.57;;;6.15;;
23718;SDS011;43322;52.230;5.702;2024-02-04T09:57:11;10.07;;;5.15;;
23718;SDS011;43322;52.230;5.702;2024-02-04T09:59:39;8.25;;;4.85;;
23718;SDS011;43322;52.230;5.702;2024-02-04T10:02:08;6.43;;;4.88;;
23718;SDS011;43322;52.230;5.702;2024-02-04T10:04:35;9.98;;;4.72;;
23718;SDS011;43322;52.230;5.702;2024-02-04T10:07:04;5.90;;;4.57;;
23718;SDS011;43322;52.230;5.702;2024-02-04T10:09:31;6.45;;;4.18;;
23718;SDS011;43322;52.230;5.702;2024-02-04T10:11:58;6.47;;;4.13;;
23718;SDS011;43322;52.230;5.702;2024-02-04T10:14:25;5.03;;;3.53;;
23718;SDS011;43322;52.230;5.702;2024-02-04T10:16:52;5.60;;;4.25;;
23718;SDS011;43322;52.230;5.702;2024-02-04T10:19:19;3.72;;;3.42;;
23718;SDS011;43322;52.230;5.702;2024-02-04T10:21:46;7.05;;;3.35;;
23718;SDS011;43322;52.230;5.702;2024-02-04T10:24:14;3.65;;;3.35;;
23718;SDS011;43322;52.230;5.702;2024-02-04T10:26:41;4.63;;;3.20;;
23718;SDS011;43322;52.230;5.702;2024-02-04T10:29:08;4.03;;;3.03;;
23718;SDS011;43322;52.230;5.702;2024-02-04T10:31:35;5.00;;;3.22;;
23718;SDS011;43322;52.230;5.702;2024-02-04T10:34:02;7.43;;;2.67;;
23718;SDS011;43322;52.230;5.702;2024-02-04T10:36:30;4.80;;;2.65;;
23718;SDS011;43322;52.230;5.702;2024-02-04T10:38:57;3.05;;;2.47;;
23718;SDS011;43322;52.230;5.702;2024-02-04T10:41:25;2.28;;;2.08;;
23718;SDS011;43322;52.230;5.702;2024-02-04T10:43:53;4.10;;;2.28;;
23718;SDS011;43322;52.230;5.702;2024-02-04T10:46:22;4.35;;;2.25;;
23718;SDS011;43322;52.230;5.702;2024-02-04T10:48:53;4.63;;;2.63;;
23718;SDS011;43322;52.230;5.702;2024-02-04T10:51:23;4.05;;;2.00;;
23718;SDS011;43322;52.230;5.702;2024-02-04T10:53:53;2.08;;;1.92;;
23718;SDS011;43322;52.230;5.702;2024-02-04T10:56:22;2.97;;;2.28;;
23718;SDS011;43322;52.230;5.702;2024-02-04T10:58:56;4.53;;;1.88;;
23718;SDS011;43322;52.230;5.702;2024-02-04T11:01:25;6.40;;;1.90;;
23718;SDS011;43322;52.230;5.702;2024-02-04T11:03:52;2.90;;;2.05;;
23718;SDS011;43322;52.230;5.702;2024-02-04T11:06:20;2.55;;;1.55;;
23718;SDS011;43322;52.230;5.702;2024-02-04T11:08:49;2.45;;;1.98;;
23718;SDS011;43322;52.230;5.702;2024-02-04T11:11:17;1.88;;;1.55;;
23718;SDS011;43322;52.230;5.702;2024-02-04T11:13:45;5.25;;;2.10;;
23718;SDS011;43322;52.230;5.702;2024-02-04T11:16:16;1.77;;;1.60;;
23718;SDS011;43322;52.230;5.702;2024-02-04T11:18:58;6.32;;;1.90;;
23718;SDS011;43322;52.230;5.702;2024-02-04T11:21:39;4.85;;;1.88;;
23718;SDS011;43322;52.230;5.702;2024-02-04T11:24:21;1.70;;;1.60;;
23718;SDS011;43322;52.230;5.702;2024-02-04T11:27:02;4.68;;;1.95;;
23718;SDS011;43322;52.230;5.702;2024-02-04T11:29:30;1.73;;;1.60;;
23718;SDS011;43322;52.230;5.702;2024-02-04T11:31:57;1.80;;;1.65;;
23718;SDS011;43322;52.230;5.702;2024-02-04T11:34:24;2.42;;;1.63;;
23718;SDS011;43322;52.230;5.702;2024-02-04T11:36:51;2.55;;;2.35;;
23718;SDS011;43322;52.230;5.702;2024-02-04T11:39:18;5.88;;;2.55;;
23718;SDS011;43322;52.230;5.702;2024-02-04T11:41:47;1.80;;;1.70;;
23718;SDS011;43322;52.230;5.702;2024-02-04T11:44:19;3.22;;;1.98;;
23718;SDS011;43322;52.230;5.702;2024-02-04T11:46:48;2.28;;;2.08;;
23718;SDS011;43322;52.230;5.702;2024-02-04T11:49:16;2.05;;;1.80;;
23718;SDS011;43322;52.230;5.702;2024-02-04T11:51:44;3.20;;;1.88;;
23718;SDS011;43322;52.230;5.702;2024-02-04T11:54:13;2.00;;;1.90;;
23718;SDS011;43322;52.230;5.702;2024-02-04T11:56:41;3.20;;;2.10;;
23718;SDS011;43322;52.230;5.702;2024-02-04T11:59:08;1.75;;;1.65;;
23718;SDS011;43322;52.230;5.702;2024-02-04T12:01:35;4.97;;;1.85;;
23718;SDS011;43322;52.230;5.702;2024-02-04T12:04:10;3.08;;;1.85;;
23718;SDS011;43322;52.230;5.702;2024-02-04T12:06:38;3.97;;;1.98;;
23718;SDS011;43322;52.230;5.702;2024-02-04T12:09:06;2.30;;;2.00;;
23718;SDS011;43322;52.230;5.702;2024-02-04T12:11:35;2.90;;;2.00;;
23718;SDS011;43322;52.230;5.702;2024-02-04T12:14:03;3.45;;;2.17;;
23718;SDS011;43322;52.230;5.702;2024-02-04T12:16:31;5.57;;;2.47;;
23718;SDS011;43322;52.230;5.702;2024-02-04T12:19:00;6.75;;;3.53;;
23718;SDS011;43322;52.230;5.702;2024-02-04T12:21:29;9.32;;;3.70;;
23718;SDS011;43322;52.230;5.702;2024-02-04T12:23:57;5.47;;;3.50;;
23718;SDS011;43322;52.230;5.702;2024-02-04T12:26:24;5.07;;;3.55;;
23718;SDS011;43322;52.230;5.702;2024-02-04T12:28:51;5.65;;;3.53;;
23718;SDS011;43322;52.230;5.702;2024-02-04T12:31:19;5.47;;;2.90;;
23718;SDS011;43322;52.230;5.702;2024-02-04T12:33:52;5.85;;;3.35;;
23718;SDS011;43322;52.230;5.702;2024-02-04T12:36:20;4.28;;;3.38;;
23718;SDS011;43322;52.230;5.702;2024-02-04T12:38:51;7.57;;;4.10;;
23718;SDS011;43322;52.230;5.702;2024-02-04T12:41:19;7.68;;;5.03;;
23718;SDS011;43322;52.230;5.702;2024-02-04T12:43:49;11.02;;;4.90;;
23718;SDS011;43322;52.230;5.702;2024-02-04T12:46:17;8.45;;;3.75;;
23718;SDS011;43322;52.230;5.702;2024-02-04T12:48:44;9.15;;;3.70;;
23718;SDS011;43322;52.230;5.702;2024-02-04T12:51:22;5.78;;;3.35;;
23718;SDS011;43322;52.230;5.702;2024-02-04T12:53:50;7.63;;;3.63;;
23718;SDS011;43322;52.230;5.702;2024-02-04T12:56:27;3.65;;;3.33;;
23718;SDS011;43322;52.230;5.702;2024-02-04T12:58:54;14.60;;;5.40;;
23718;SDS011;43322;52.230;5.702;2024-02-04T13:01:22;22.92;;;5.35;;
23718;SDS011;43322;52.230;5.702;2024-02-04T13:03:49;14.60;;;5.05;;
23718;SDS011;43322;52.230;5.702;2024-02-04T13:06:16;14.13;;;4.55;;
23718;SDS011;43322;52.230;5.702;2024-02-04T13:08:42;16.48;;;4.93;;
23718;SDS011;43322;52.230;5.702;2024-02-04T13:11:10;9.77;;;5.22;;
23718;SDS011;43322;52.230;5.702;2024-02-04T13:13:37;14.65;;;5.18;;
23718;SDS011;43322;52.230;5.702;2024-02-04T13:16:04;11.70;;;4.63;;
23718;SDS011;43322;52.230;5.702;2024-02-04T13:18:31;15.55;;;4.95;;
23718;SDS011;43322;52.230;5.702;2024-02-04T13:20:58;15.95;;;5.00;;
23718;SDS011;43322;52.230;5.702;2024-02-04T13:23:25;12.05;;;4.85;;
23718;SDS011;43322;52.230;5.702;2024-02-04T13:25:51;14.35;;;5.18;;
23718;SDS011;43322;52.230;5.702;2024-02-04T13:28:19;9.80;;;4.22;;
23718;SDS011;43322;52.230;5.702;2024-02-04T13:30:48;14.88;;;3.97;;
23718;SDS011;43322;52.230;5.702;2024-02-04T13:33:14;9.88;;;4.18;;
23718;SDS011;43322;52.230;5.702;2024-02-04T13:35:41;9.77;;;4.15;;
23718;SDS011;43322;52.230;5.702;2024-02-04T13:38:08;9.90;;;3.70;;
23718;SDS011;43322;52.230;5.702;2024-02-04T13:40:35;7.85;;;3.78;;
23718;SDS011;43322;52.230;5.702;2024-02-04T13:43:02;10.13;;;4.40;;
23718;SDS011;43322;52.230;5.702;2024-02-04T13:45:30;12.10;;;4.53;;
23718;SDS011;43322;52.230;5.702;2024-02-04T13:47:57;12.48;;;4.20;;
23718;SDS011;43322;52.230;5.702;2024-02-04T13:50:24;12.95;;;4.32;;
23718;SDS011;43322;52.230;5.702;2024-02-04T13:52:51;9.23;;;4.38;;
23718;SDS011;43322;52.230;5.702;2024-02-04T13:55:17;8.77;;;4.30;;
23718;SDS011;43322;52.230;5.702;2024-02-04T13:57:44;6.35;;;3.60;;
23718;SDS011;43322;52.230;5.702;2024-02-04T14:00:12;6.15;;;4.03;;
23718;SDS011;43322;52.230;5.702;2024-02-04T14:02:40;8.73;;;3.88;;
23718;SDS011;43322;52.230;5.702;2024-02-04T14:05:07;7.40;;;3.83;;
23718;SDS011;43322;52.230;5.702;2024-02-04T14:07:34;6.55;;;3.75;;
23718;SDS011;43322;52.230;5.702;2024-02-04T14:10:01;9.70;;;3.92;;
23718;SDS011;43322;52.230;5.702;2024-02-04T14:12:28;9.85;;;4.18;;
23718;SDS011;43322;52.230;5.702;2024-02-04T14:14:56;9.15;;;3.97;;
23718;SDS011;43322;52.230;5.702;2024-02-04T14:17:23;8.93;;;4.18;;
23718;SDS011;43322;52.230;5.702;2024-02-04T14:19:52;8.55;;;4.10;;
23718;SDS011;43322;52.230;5.702;2024-02-04T14:22:19;7.65;;;3.60;;
23718;SDS011;43322;52.230;5.702;2024-02-04T14:24:47;6.55;;;3.70;;
23718;SDS011;43322;52.230;5.702;2024-02-04T14:27:15;9.50;;;4.00;;
23718;SDS011;43322;52.230;5.702;2024-02-04T14:29:42;8.27;;;3.60;;
23718;SDS011;43322;52.230;5.702;2024-02-04T14:32:08;10.07;;;3.75;;
23718;SDS011;43322;52.230;5.702;2024-02-04T14:34:35;11.27;;;4.20;;
23718;SDS011;43322;52.230;5.702;2024-02-04T14:37:04;5.68;;;3.85;;
23718;SDS011;43322;52.230;5.702;2024-02-04T14:39:31;7.97;;;3.60;;
23718;SDS011;43322;52.230;5.702;2024-02-04T14:41:58;8.65;;;3.25;;